sensor_id;sensor_type;location;lat;lon;timestamp;P1;durP1;ratioP1;P2;durP2;ratioP2
67132;SDS011;54052;53.542;49.408;2022-07-05T00:01:09;6.53;;;1.42;;
67132;SDS011;54052;53.542;49.408;2022-07-05T00:03:35;2.75;;;1.23;;
67132;SDS011;54052;53.542;49.408;2022-07-05T00:06:01;6.03;;;2.13;;
67132;SDS011;54052;53.542;49.408;2022-07-05T00:08:28;7.32;;;1.42;;
67132;SDS011;54052;53.542;49.408;2022-07-05T00:10:54;4.35;;;1.20;;
67132;SDS011;54052;53.542;49.408;2022-07-05T00:13:20;2.40;;;1.10;;
67132;SDS011;54052;53.542;49.408;2022-07-05T00:15:47;4.88;;;1.30;;
67132;SDS011;54052;53.542;49.408;2022-07-05T00:18:19;3.60;;;1.40;;
67132;SDS011;54052;53.542;49.408;2022-07-05T00:20:45;3.55;;;1.38;;
67132;SDS011;54052;53.542;49.408;2022-07-05T00:23:11;3.00;;;1.38;;
67132;SDS011;54052;53.542;49.408;2022-07-05T00:25:38;3.50;;;1.27;;
67132;SDS011;54052;53.542;49.408;2022-07-05T00:28:04;2.70;;;1.35;;
67132;SDS011;54052;53.542;49.408;2022-07-05T00:30:31;15.00;;;1.20;;
67132;SDS011;54052;53.542;49.408;2022-07-05T00:32:57;4.03;;;1.33;;
67132;SDS011;54052;53.542;49.408;2022-07-05T00:35:23;6.30;;;1.38;;
67132;SDS011;54052;53.542;49.408;2022-07-05T00:37:50;2.10;;;1.20;;
67132;SDS011;54052;53.542;49.408;2022-07-05T00:40:16;3.55;;;1.27;;
67132;SDS011;54052;53.542;49.408;2022-07-05T00:42:42;2.67;;;1.30;;
67132;SDS011;54052;53.542;49.408;2022-07-05T00:45:09;2.45;;;0.93;;
67132;SDS011;54052;53.542;49.408;2022-07-05T00:47:35;3.70;;;1.10;;
67132;SDS011;54052;53.542;49.408;2022-07-05T00:50:02;3.95;;;1.48;;
67132;SDS011;54052;53.542;49.408;2022-07-05T00:52:29;3.53;;;0.93;;
67132;SDS011;54052;53.542;49.408;2022-07-05T00:54:56;5.85;;;1.00;;
67132;SDS011;54052;53.542;49.408;2022-07-05T00:57:22;5.20;;;0.80;;
67132;SDS011;54052;53.542;49.408;2022-07-05T00:59:49;3.15;;;0.80;;
67132;SDS011;54052;53.542;49.408;2022-07-05T01:02:17;5.75;;;1.17;;
67132;SDS011;54052;53.542;49.408;2022-07-05T01:04:46;5.60;;;1.00;;
67132;SDS011;54052;53.542;49.408;2022-07-05T01:07:14;3.72;;;0.82;;
67132;SDS011;54052;53.542;49.408;2022-07-05T01:09:42;4.03;;;0.90;;
67132;SDS011;54052;53.542;49.408;2022-07-05T01:12:09;2.22;;;0.80;;
67132;SDS011;54052;53.542;49.408;2022-07-05T01:14:35;3.63;;;1.00;;
67132;SDS011;54052;53.542;49.408;2022-07-05T01:17:02;6.18;;;0.90;;
67132;SDS011;54052;53.542;49.408;2022-07-05T01:19:29;6.28;;;0.80;;
67132;SDS011;54052;53.542;49.408;2022-07-05T01:21:55;4.28;;;1.15;;
67132;SDS011;54052;53.542;49.408;2022-07-05T01:24:25;1.35;;;0.68;;
67132;SDS011;54052;53.542;49.408;2022-07-05T01:26:51;4.85;;;0.70;;
67132;SDS011;54052;53.542;49.408;2022-07-05T01:29:18;1.40;;;0.70;;
67132;SDS011;54052;53.542;49.408;2022-07-05T01:31:44;9.57;;;0.80;;
67132;SDS011;54052;53.542;49.408;2022-07-05T01:34:11;1.35;;;0.77;;
67132;SDS011;54052;53.542;49.408;2022-07-05T01:36:37;3.42;;;0.70;;
67132;SDS011;54052;53.542;49.408;2022-07-05T01:39:05;3.28;;;0.70;;
67132;SDS011;54052;53.542;49.408;2022-07-05T01:41:33;4.47;;;0.65;;
67132;SDS011;54052;53.542;49.408;2022-07-05T01:44:00;3.97;;;0.70;;
67132;SDS011;54052;53.542;49.408;2022-07-05T01:46:30;1.98;;;0.70;;
67132;SDS011;54052;53.542;49.408;2022-07-05T01:49:00;1.67;;;0.60;;
67132;SDS011;54052;53.542;49.408;2022-07-05T01:51:33;2.88;;;0.47;;
67132;SDS011;54052;53.542;49.408;2022-07-05T01:56:29;6.88;;;0.60;;
67132;SDS011;54052;53.542;49.408;2022-07-05T01:58:56;1.85;;;0.60;;
67132;SDS011;54052;53.542;49.408;2022-07-05T02:01:34;9.77;;;0.90;;
67132;SDS011;54052;53.542;49.408;2022-07-05T02:04:03;6.35;;;0.70;;
67132;SDS011;54052;53.542;49.408;2022-07-05T02:06:31;9.18;;;2.05;;
67132;SDS011;54052;53.542;49.408;2022-07-05T02:08:59;4.43;;;0.98;;
67132;SDS011;54052;53.542;49.408;2022-07-05T02:11:26;2.42;;;0.55;;
67132;SDS011;54052;53.542;49.408;2022-07-05T02:13:53;1.27;;;0.80;;
67132;SDS011;54052;53.542;49.408;2022-07-05T02:16:23;3.22;;;0.50;;
67132;SDS011;54052;53.542;49.408;2022-07-05T02:18:51;6.45;;;1.40;;
67132;SDS011;54052;53.542;49.408;2022-07-05T02:21:18;1.08;;;0.70;;
67132;SDS011;54052;53.542;49.408;2022-07-05T02:23:44;6.00;;;0.68;;
67132;SDS011;54052;53.542;49.408;2022-07-05T02:26:11;4.32;;;0.68;;
67132;SDS011;54052;53.542;49.408;2022-07-05T02:28:38;1.60;;;0.80;;
67132;SDS011;54052;53.542;49.408;2022-07-05T02:31:04;2.42;;;0.88;;
67132;SDS011;54052;53.542;49.408;2022-07-05T02:33:30;5.25;;;0.70;;
67132;SDS011;54052;53.542;49.408;2022-07-05T02:35:57;3.10;;;0.70;;
67132;SDS011;54052;53.542;49.408;2022-07-05T02:38:30;5.45;;;0.70;;
67132;SDS011;54052;53.542;49.408;2022-07-05T02:40:57;3.47;;;0.70;;
67132;SDS011;54052;53.542;49.408;2022-07-05T02:43:23;7.18;;;1.00;;
67132;SDS011;54052;53.542;49.408;2022-07-05T02:45:50;0.70;;;0.40;;
67132;SDS011;54052;53.542;49.408;2022-07-05T02:48:16;8.85;;;0.40;;
67132;SDS011;54052;53.542;49.408;2022-07-05T02:50:42;6.93;;;0.30;;
67132;SDS011;54052;53.542;49.408;2022-07-05T02:53:09;1.08;;;0.43;;
67132;SDS011;54052;53.542;49.408;2022-07-05T02:55:35;0.73;;;0.30;;
67132;SDS011;54052;53.542;49.408;2022-07-05T02:58:02;0.85;;;0.30;;
67132;SDS011;54052;53.542;49.408;2022-07-05T03:00:28;1.70;;;0.32;;
67132;SDS011;54052;53.542;49.408;2022-07-05T03:02:54;3.83;;;0.35;;
67132;SDS011;54052;53.542;49.408;2022-07-05T03:05:21;1.42;;;0.30;;
67132;SDS011;54052;53.542;49.408;2022-07-05T03:07:47;1.60;;;0.30;;
67132;SDS011;54052;53.542;49.408;2022-07-05T03:10:13;3.88;;;0.30;;
67132;SDS011;54052;53.542;49.408;2022-07-05T03:12:39;8.95;;;0.50;;
67132;SDS011;54052;53.542;49.408;2022-07-05T03:15:06;1.50;;;0.30;;
67132;SDS011;54052;53.542;49.408;2022-07-05T03:17:33;1.95;;;0.25;;
67132;SDS011;54052;53.542;49.408;2022-07-05T03:19:59;18.85;;;1.33;;
67132;SDS011;54052;53.542;49.408;2022-07-05T03:22:26;0.50;;;0.20;;
67132;SDS011;54052;53.542;49.408;2022-07-05T03:24:52;2.33;;;0.20;;
67132;SDS011;54052;53.542;49.408;2022-07-05T03:27:18;0.45;;;0.20;;
67132;SDS011;54052;53.542;49.408;2022-07-05T03:29:45;2.67;;;0.30;;
67132;SDS011;54052;53.542;49.408;2022-07-05T03:32:11;0.60;;;0.30;;
67132;SDS011;54052;53.542;49.408;2022-07-05T03:34:37;6.95;;;0.40;;
67132;SDS011;54052;53.542;49.408;2022-07-05T03:37:04;3.42;;;0.28;;
67132;SDS011;54052;53.542;49.408;2022-07-05T03:39:30;3.08;;;0.32;;
67132;SDS011;54052;53.542;49.408;2022-07-05T03:41:56;0.28;;;0.20;;
67132;SDS011;54052;53.542;49.408;2022-07-05T03:44:23;0.35;;;0.20;;
67132;SDS011;54052;53.542;49.408;2022-07-05T03:46:49;1.33;;;0.30;;
67132;SDS011;54052;53.542;49.408;2022-07-05T03:49:16;2.17;;;0.20;;
67132;SDS011;54052;53.542;49.408;2022-07-05T03:51:42;2.92;;;0.25;;
67132;SDS011;54052;53.542;49.408;2022-07-05T03:54:08;0.40;;;0.20;;
67132;SDS011;54052;53.542;49.408;2022-07-05T03:56:45;1.23;;;0.30;;
67132;SDS011;54052;53.542;49.408;2022-07-05T03:59:12;6.25;;;0.30;;
67132;SDS011;54052;53.542;49.408;2022-07-05T04:01:38;6.75;;;0.40;;
67132;SDS011;54052;53.542;49.408;2022-07-05T04:04:04;1.55;;;0.25;;
67132;SDS011;54052;53.542;49.408;2022-07-05T04:06:31;2.40;;;0.30;;
67132;SDS011;54052;53.542;49.408;2022-07-05T04:08:57;0.28;;;0.25;;
67132;SDS011;54052;53.542;49.408;2022-07-05T04:11:25;0.30;;;0.20;;
67132;SDS011;54052;53.542;49.408;2022-07-05T04:13:51;5.50;;;0.40;;
67132;SDS011;54052;53.542;49.408;2022-07-05T04:16:18;3.97;;;0.20;;
67132;SDS011;54052;53.542;49.408;2022-07-05T04:18:44;5.35;;;0.20;;
67132;SDS011;54052;53.542;49.408;2022-07-05T04:21:10;0.28;;;0.20;;
67132;SDS011;54052;53.542;49.408;2022-07-05T04:23:37;3.03;;;0.57;;
67132;SDS011;54052;53.542;49.408;2022-07-05T04:26:03;0.10;;;0.10;;
67132;SDS011;54052;53.542;49.408;2022-07-05T04:28:29;5.85;;;0.30;;
67132;SDS011;54052;53.542;49.408;2022-07-05T04:30:56;0.68;;;0.20;;
67132;SDS011;54052;53.542;49.408;2022-07-05T04:33:23;0.80;;;0.20;;
67132;SDS011;54052;53.542;49.408;2022-07-05T04:35:50;0.95;;;0.20;;
67132;SDS011;54052;53.542;49.408;2022-07-05T04:38:17;0.52;;;0.20;;
67132;SDS011;54052;53.542;49.408;2022-07-05T04:40:43;2.05;;;0.30;;
67132;SDS011;54052;53.542;49.408;2022-07-05T04:43:09;1.42;;;0.38;;
67132;SDS011;54052;53.542;49.408;2022-07-05T04:45:36;1.85;;;0.38;;
67132;SDS011;54052;53.542;49.408;2022-07-05T04:48:02;1.42;;;0.30;;
67132;SDS011;54052;53.542;49.408;2022-07-05T04:50:29;2.40;;;0.20;;
67132;SDS011;54052;53.542;49.408;2022-07-05T04:52:55;0.28;;;0.17;;
67132;SDS011;54052;53.542;49.408;2022-07-05T04:55:22;2.53;;;0.35;;
67132;SDS011;54052;53.542;49.408;2022-07-05T04:57:48;1.85;;;0.22;;
67132;SDS011;54052;53.542;49.408;2022-07-05T05:00:14;2.15;;;0.30;;
67132;SDS011;54052;53.542;49.408;2022-07-05T05:02:41;1.08;;;0.20;;
67132;SDS011;54052;53.542;49.408;2022-07-05T05:05:07;0.80;;;0.20;;
67132;SDS011;54052;53.542;49.408;2022-07-05T05:07:34;0.68;;;0.15;;
67132;SDS011;54052;53.542;49.408;2022-07-05T05:10:03;2.50;;;0.20;;
67132;SDS011;54052;53.542;49.408;2022-07-05T05:12:31;3.20;;;0.60;;
67132;SDS011;54052;53.542;49.408;2022-07-05T05:14:57;0.90;;;0.10;;
67132;SDS011;54052;53.542;49.408;2022-07-05T05:17:24;2.80;;;0.20;;
67132;SDS011;54052;53.542;49.408;2022-07-05T05:19:50;5.95;;;0.20;;
67132;SDS011;54052;53.542;49.408;2022-07-05T05:22:17;1.00;;;0.10;;
67132;SDS011;54052;53.542;49.408;2022-07-05T05:24:43;4.28;;;0.20;;
67132;SDS011;54052;53.542;49.408;2022-07-05T05:27:09;0.63;;;0.13;;
67132;SDS011;54052;53.542;49.408;2022-07-05T05:29:36;1.08;;;0.10;;
67132;SDS011;54052;53.542;49.408;2022-07-05T05:32:02;0.28;;;0.28;;
67132;SDS011;54052;53.542;49.408;2022-07-05T05:34:28;4.47;;;0.28;;
67132;SDS011;54052;53.542;49.408;2022-07-05T05:36:55;1.38;;;0.25;;
67132;SDS011;54052;53.542;49.408;2022-07-05T05:39:21;0.82;;;0.60;;
67132;SDS011;54052;53.542;49.408;2022-07-05T05:41:47;7.18;;;0.20;;
67132;SDS011;54052;53.542;49.408;2022-07-05T05:44:14;0.47;;;0.20;;
67132;SDS011;54052;53.542;49.408;2022-07-05T05:46:40;0.13;;;0.13;;
67132;SDS011;54052;53.542;49.408;2022-07-05T05:49:06;1.23;;;0.28;;
67132;SDS011;54052;53.542;49.408;2022-07-05T05:51:33;1.00;;;0.20;;
67132;SDS011;54052;53.542;49.408;2022-07-05T05:53:59;2.95;;;0.28;;
67132;SDS011;54052;53.542;49.408;2022-07-05T05:56:25;1.42;;;0.30;;
67132;SDS011;54052;53.542;49.408;2022-07-05T05:58:52;0.40;;;0.20;;
67132;SDS011;54052;53.542;49.408;2022-07-05T06:01:18;0.43;;;0.20;;
67132;SDS011;54052;53.542;49.408;2022-07-05T06:03:45;4.40;;;0.20;;
67132;SDS011;54052;53.542;49.408;2022-07-05T06:06:11;0.95;;;0.28;;
67132;SDS011;54052;53.542;49.408;2022-07-05T06:08:37;1.08;;;0.20;;
67132;SDS011;54052;53.542;49.408;2022-07-05T06:11:04;1.10;;;0.30;;
67132;SDS011;54052;53.542;49.408;2022-07-05T06:13:30;0.52;;;0.20;;
67132;SDS011;54052;53.542;49.408;2022-07-05T06:16:02;0.40;;;0.30;;
67132;SDS011;54052;53.542;49.408;2022-07-05T06:18:29;0.50;;;0.20;;
67132;SDS011;54052;53.542;49.408;2022-07-05T06:20:55;1.85;;;0.30;;
67132;SDS011;54052;53.542;49.408;2022-07-05T06:23:22;0.13;;;0.13;;
67132;SDS011;54052;53.542;49.408;2022-07-05T06:25:48;0.63;;;0.30;;
67132;SDS011;54052;53.542;49.408;2022-07-05T06:28:14;0.52;;;0.30;;
67132;SDS011;54052;53.542;49.408;2022-07-05T06:30:42;0.30;;;0.20;;
67132;SDS011;54052;53.542;49.408;2022-07-05T06:33:09;0.20;;;0.20;;
67132;SDS011;54052;53.542;49.408;2022-07-05T06:35:35;2.15;;;0.20;;
67132;SDS011;54052;53.542;49.408;2022-07-05T06:38:05;1.67;;;0.30;;
67132;SDS011;54052;53.542;49.408;2022-07-05T06:40:40;0.35;;;0.22;;
67132;SDS011;54052;53.542;49.408;2022-07-05T06:43:08;0.35;;;0.28;;
67132;SDS011;54052;53.542;49.408;2022-07-05T06:45:35;9.70;;;0.60;;
67132;SDS011;54052;53.542;49.408;2022-07-05T06:48:02;0.93;;;0.13;;
67132;SDS011;54052;53.542;49.408;2022-07-05T06:50:31;4.55;;;0.20;;
67132;SDS011;54052;53.542;49.408;2022-07-05T06:53:01;5.30;;;0.20;;
67132;SDS011;54052;53.542;49.408;2022-07-05T06:55:28;0.85;;;0.35;;
67132;SDS011;54052;53.542;49.408;2022-07-05T06:58:13;0.98;;;0.20;;
67132;SDS011;54052;53.542;49.408;2022-07-05T07:00:40;0.32;;;0.20;;
67132;SDS011;54052;53.542;49.408;2022-07-05T07:03:07;0.60;;;0.20;;
67132;SDS011;54052;53.542;49.408;2022-07-05T07:05:33;0.73;;;0.30;;
67132;SDS011;54052;53.542;49.408;2022-07-05T07:08:00;0.20;;;0.20;;
67132;SDS011;54052;53.542;49.408;2022-07-05T07:10:45;5.07;;;0.20;;
67132;SDS011;54052;53.542;49.408;2022-07-05T07:13:11;2.80;;;0.30;;
67132;SDS011;54052;53.542;49.408;2022-07-05T07:15:38;0.50;;;0.25;;
67132;SDS011;54052;53.542;49.408;2022-07-05T07:18:04;0.82;;;0.20;;
67132;SDS011;54052;53.542;49.408;2022-07-05T07:20:31;0.40;;;0.30;;
67132;SDS011;54052;53.542;49.408;2022-07-05T07:22:58;9.13;;;0.95;;
67132;SDS011;54052;53.542;49.408;2022-07-05T07:25:24;10.82;;;0.30;;
67132;SDS011;54052;53.542;49.408;2022-07-05T07:27:52;5.00;;;0.30;;
67132;SDS011;54052;53.542;49.408;2022-07-05T07:30:22;4.57;;;0.30;;
67132;SDS011;54052;53.542;49.408;2022-07-05T07:32:50;0.25;;;0.20;;
67132;SDS011;54052;53.542;49.408;2022-07-05T07:35:17;0.20;;;0.20;;
67132;SDS011;54052;53.542;49.408;2022-07-05T07:37:43;0.60;;;0.30;;
67132;SDS011;54052;53.542;49.408;2022-07-05T07:40:10;4.55;;;0.40;;
67132;SDS011;54052;53.542;49.408;2022-07-05T07:42:37;0.50;;;0.50;;
67132;SDS011;54052;53.542;49.408;2022-07-05T07:45:04;2.65;;;0.30;;
67132;SDS011;54052;53.542;49.408;2022-07-05T07:47:31;0.38;;;0.30;;
67132;SDS011;54052;53.542;49.408;2022-07-05T07:49:59;0.15;;;0.15;;
67132;SDS011;54052;53.542;49.408;2022-07-05T07:52:26;0.68;;;0.30;;
67132;SDS011;54052;53.542;49.408;2022-07-05T07:54:53;0.20;;;0.20;;
67132;SDS011;54052;53.542;49.408;2022-07-05T07:57:19;0.30;;;0.20;;
67132;SDS011;54052;53.542;49.408;2022-07-05T07:59:46;0.73;;;0.20;;
67132;SDS011;54052;53.542;49.408;2022-07-05T08:02:12;1.40;;;0.20;;
67132;SDS011;54052;53.542;49.408;2022-07-05T08:04:39;26.10;;;0.55;;
67132;SDS011;54052;53.542;49.408;2022-07-05T08:07:05;0.52;;;0.32;;
67132;SDS011;54052;53.542;49.408;2022-07-05T08:09:32;0.80;;;0.40;;
67132;SDS011;54052;53.542;49.408;2022-07-05T08:11:58;0.85;;;0.30;;
67132;SDS011;54052;53.542;49.408;2022-07-05T08:14:25;2.20;;;0.30;;
67132;SDS011;54052;53.542;49.408;2022-07-05T08:16:51;0.98;;;0.30;;
67132;SDS011;54052;53.542;49.408;2022-07-05T08:19:20;1.05;;;0.40;;
67132;SDS011;54052;53.542;49.408;2022-07-05T08:22:06;1.23;;;0.50;;
67132;SDS011;54052;53.542;49.408;2022-07-05T08:24:34;0.82;;;0.22;;
67132;SDS011;54052;53.542;49.408;2022-07-05T08:27:02;2.17;;;0.40;;
67132;SDS011;54052;53.542;49.408;2022-07-05T08:29:28;1.15;;;0.40;;
67132;SDS011;54052;53.542;49.408;2022-07-05T08:31:55;0.50;;;0.30;;
67132;SDS011;54052;53.542;49.408;2022-07-05T08:34:21;2.75;;;0.40;;
67132;SDS011;54052;53.542;49.408;2022-07-05T08:36:48;0.75;;;0.40;;
67132;SDS011;54052;53.542;49.408;2022-07-05T08:39:15;2.83;;;0.30;;
67132;SDS011;54052;53.542;49.408;2022-07-05T08:41:43;0.70;;;0.38;;
67132;SDS011;54052;53.542;49.408;2022-07-05T08:44:15;1.40;;;0.37;;
67132;SDS011;54052;53.542;49.408;2022-07-05T08:46:44;3.13;;;1.05;;
67132;SDS011;54052;53.542;49.408;2022-07-05T08:49:13;0.47;;;0.30;;
67132;SDS011;54052;53.542;49.408;2022-07-05T08:51:40;1.17;;;0.30;;
67132;SDS011;54052;53.542;49.408;2022-07-05T08:54:08;3.17;;;0.40;;
67132;SDS011;54052;53.542;49.408;2022-07-05T08:56:39;3.70;;;0.40;;
67132;SDS011;54052;53.542;49.408;2022-07-05T08:59:07;2.80;;;0.30;;
67132;SDS011;54052;53.542;49.408;2022-07-05T09:01:37;1.60;;;0.75;;
67132;SDS011;54052;53.542;49.408;2022-07-05T09:04:06;2.20;;;0.30;;
67132;SDS011;54052;53.542;49.408;2022-07-05T09:06:36;1.85;;;0.30;;
67132;SDS011;54052;53.542;49.408;2022-07-05T09:09:05;1.75;;;0.38;;
67132;SDS011;54052;53.542;49.408;2022-07-05T09:14:07;0.98;;;0.50;;
67132;SDS011;54052;53.542;49.408;2022-07-05T09:16:44;0.43;;;0.22;;
67132;SDS011;54052;53.542;49.408;2022-07-05T09:19:14;0.95;;;0.28;;
67132;SDS011;54052;53.542;49.408;2022-07-05T09:21:40;5.30;;;0.43;;
67132;SDS011;54052;53.542;49.408;2022-07-05T09:24:10;1.48;;;0.30;;
67132;SDS011;54052;53.542;49.408;2022-07-05T09:26:42;0.82;;;0.32;;
67132;SDS011;54052;53.542;49.408;2022-07-05T09:29:11;0.38;;;0.30;;
67132;SDS011;54052;53.542;49.408;2022-07-05T09:31:40;7.65;;;0.50;;
67132;SDS011;54052;53.542;49.408;2022-07-05T09:34:08;1.40;;;0.40;;
67132;SDS011;54052;53.542;49.408;2022-07-05T09:37:18;7.47;;;0.40;;
67132;SDS011;54052;53.542;49.408;2022-07-05T09:42:10;1.50;;;0.40;;
67132;SDS011;54052;53.542;49.408;2022-07-05T09:44:50;0.85;;;0.45;;
67132;SDS011;54052;53.542;49.408;2022-07-05T09:47:17;0.40;;;0.30;;
67132;SDS011;54052;53.542;49.408;2022-07-05T09:49:48;3.00;;;0.20;;
67132;SDS011;54052;53.542;49.408;2022-07-05T09:52:32;0.82;;;0.30;;
67132;SDS011;54052;53.542;49.408;2022-07-05T09:55:09;1.95;;;0.30;;
67132;SDS011;54052;53.542;49.408;2022-07-05T09:57:38;6.50;;;0.32;;
67132;SDS011;54052;53.542;49.408;2022-07-05T10:00:06;1.08;;;0.30;;
67132;SDS011;54052;53.542;49.408;2022-07-05T10:02:44;3.38;;;0.35;;
67132;SDS011;54052;53.542;49.408;2022-07-05T10:05:20;3.53;;;0.20;;
67132;SDS011;54052;53.542;49.408;2022-07-05T10:07:49;0.88;;;0.25;;
67132;SDS011;54052;53.542;49.408;2022-07-05T10:10:18;0.20;;;0.20;;
67132;SDS011;54052;53.542;49.408;2022-07-05T10:12:46;2.25;;;0.20;;
67132;SDS011;54052;53.542;49.408;2022-07-05T10:15:15;1.92;;;0.40;;
67132;SDS011;54052;53.542;49.408;2022-07-05T10:18:07;1.10;;;0.55;;
67132;SDS011;54052;53.542;49.408;2022-07-05T10:23:13;1.30;;;0.40;;
67132;SDS011;54052;53.542;49.408;2022-07-05T10:25:42;2.03;;;0.35;;
67132;SDS011;54052;53.542;49.408;2022-07-05T10:28:17;4.57;;;0.40;;
67132;SDS011;54052;53.542;49.408;2022-07-05T10:30:46;1.42;;;0.30;;
67132;SDS011;54052;53.542;49.408;2022-07-05T10:33:17;1.17;;;0.30;;
67132;SDS011;54052;53.542;49.408;2022-07-05T10:35:47;0.60;;;0.30;;
67132;SDS011;54052;53.542;49.408;2022-07-05T10:38:13;0.28;;;0.28;;
67132;SDS011;54052;53.542;49.408;2022-07-05T10:40:41;3.97;;;0.30;;
67132;SDS011;54052;53.542;49.408;2022-07-05T10:43:09;4.70;;;0.30;;
67132;SDS011;54052;53.542;49.408;2022-07-05T10:45:38;0.32;;;0.20;;
67132;SDS011;54052;53.542;49.408;2022-07-05T10:58:36;0.73;;;0.40;;
67132;SDS011;54052;53.542;49.408;2022-07-05T11:03:45;0.82;;;0.43;;
67132;SDS011;54052;53.542;49.408;2022-07-05T11:06:22;1.00;;;0.30;;
67132;SDS011;54052;53.542;49.408;2022-07-05T11:16:47;0.50;;;0.30;;
67132;SDS011;54052;53.542;49.408;2022-07-05T11:19:34;2.30;;;0.30;;
67132;SDS011;54052;53.542;49.408;2022-07-05T11:22:20;0.43;;;0.40;;
67132;SDS011;54052;53.542;49.408;2022-07-05T11:24:47;0.82;;;0.40;;
67132;SDS011;54052;53.542;49.408;2022-07-05T11:27:14;2.55;;;0.50;;
67132;SDS011;54052;53.542;49.408;2022-07-05T11:29:41;4.40;;;0.30;;
67132;SDS011;54052;53.542;49.408;2022-07-05T11:32:12;0.60;;;0.30;;
67132;SDS011;54052;53.542;49.408;2022-07-05T11:34:44;1.85;;;0.45;;
67132;SDS011;54052;53.542;49.408;2022-07-05T11:39:45;0.47;;;0.40;;
67132;SDS011;54052;53.542;49.408;2022-07-05T11:42:21;0.90;;;0.50;;
67132;SDS011;54052;53.542;49.408;2022-07-05T11:44:51;0.90;;;0.43;;
67132;SDS011;54052;53.542;49.408;2022-07-05T11:47:21;5.28;;;0.50;;
67132;SDS011;54052;53.542;49.408;2022-07-05T11:49:58;0.82;;;0.40;;
67132;SDS011;54052;53.542;49.408;2022-07-05T11:52:25;3.33;;;0.40;;
67132;SDS011;54052;53.542;49.408;2022-07-05T11:54:53;17.90;;;0.95;;
67132;SDS011;54052;53.542;49.408;2022-07-05T11:57:20;0.95;;;0.45;;
67132;SDS011;54052;53.542;49.408;2022-07-05T11:59:46;0.47;;;0.40;;
67132;SDS011;54052;53.542;49.408;2022-07-05T12:02:13;0.82;;;0.30;;
67132;SDS011;54052;53.542;49.408;2022-07-05T12:04:40;7.30;;;0.47;;
67132;SDS011;54052;53.542;49.408;2022-07-05T12:07:06;0.52;;;0.35;;
67132;SDS011;54052;53.542;49.408;2022-07-05T12:09:33;1.30;;;0.50;;
67132;SDS011;54052;53.542;49.408;2022-07-05T12:12:22;0.95;;;0.40;;
67132;SDS011;54052;53.542;49.408;2022-07-05T12:15:08;2.80;;;0.50;;
67132;SDS011;54052;53.542;49.408;2022-07-05T12:17:37;0.32;;;0.32;;
67132;SDS011;54052;53.542;49.408;2022-07-05T12:20:05;1.00;;;0.50;;
67132;SDS011;54052;53.542;49.408;2022-07-05T12:22:37;7.22;;;0.68;;
67132;SDS011;54052;53.542;49.408;2022-07-05T12:25:08;6.32;;;0.57;;
67132;SDS011;54052;53.542;49.408;2022-07-05T12:27:39;1.42;;;0.65;;
67132;SDS011;54052;53.542;49.408;2022-07-05T12:30:07;1.33;;;0.50;;
67132;SDS011;54052;53.542;49.408;2022-07-05T12:35:45;5.05;;;0.70;;
67132;SDS011;54052;53.542;49.408;2022-07-05T12:38:13;0.77;;;0.52;;
67132;SDS011;54052;53.542;49.408;2022-07-05T12:40:41;0.85;;;0.60;;
67132;SDS011;54052;53.542;49.408;2022-07-05T12:43:22;2.00;;;0.52;;
67132;SDS011;54052;53.542;49.408;2022-07-05T12:46:02;2.70;;;0.65;;
67132;SDS011;54052;53.542;49.408;2022-07-05T12:48:33;1.65;;;0.60;;
67132;SDS011;54052;53.542;49.408;2022-07-05T12:51:02;6.20;;;0.90;;
67132;SDS011;54052;53.542;49.408;2022-07-05T12:53:29;6.38;;;0.80;;
67132;SDS011;54052;53.542;49.408;2022-07-05T12:56:14;6.50;;;0.70;;
67132;SDS011;54052;53.542;49.408;2022-07-05T12:59:03;4.30;;;0.40;;
67132;SDS011;54052;53.542;49.408;2022-07-05T13:01:34;0.82;;;0.57;;
67132;SDS011;54052;53.542;49.408;2022-07-05T13:04:07;0.50;;;0.30;;
67132;SDS011;54052;53.542;49.408;2022-07-05T13:09:12;1.80;;;0.40;;
67132;SDS011;54052;53.542;49.408;2022-07-05T13:11:40;0.98;;;0.40;;
67132;SDS011;54052;53.542;49.408;2022-07-05T13:14:08;3.22;;;0.50;;
67132;SDS011;54052;53.542;49.408;2022-07-05T13:16:34;9.93;;;2.58;;
67132;SDS011;54052;53.542;49.408;2022-07-05T13:19:08;7.03;;;2.55;;
67132;SDS011;54052;53.542;49.408;2022-07-05T13:21:38;6.13;;;2.10;;
67132;SDS011;54052;53.542;49.408;2022-07-05T13:24:04;13.60;;;3.78;;
67132;SDS011;54052;53.542;49.408;2022-07-05T13:26:32;12.23;;;2.58;;
67132;SDS011;54052;53.542;49.408;2022-07-05T13:28:58;5.72;;;2.13;;
67132;SDS011;54052;53.542;49.408;2022-07-05T13:31:25;1.52;;;0.90;;
67132;SDS011;54052;53.542;49.408;2022-07-05T13:33:54;1.85;;;0.95;;
67132;SDS011;54052;53.542;49.408;2022-07-05T13:36:21;2.30;;;0.80;;
67132;SDS011;54052;53.542;49.408;2022-07-05T13:38:47;10.70;;;2.90;;
67132;SDS011;54052;53.542;49.408;2022-07-05T13:41:14;3.72;;;1.55;;
67132;SDS011;54052;53.542;49.408;2022-07-05T13:43:40;4.30;;;1.48;;
67132;SDS011;54052;53.542;49.408;2022-07-05T13:46:06;0.85;;;0.70;;
67132;SDS011;54052;53.542;49.408;2022-07-05T13:48:33;9.93;;;1.20;;
67132;SDS011;54052;53.542;49.408;2022-07-05T13:50:59;9.23;;;1.92;;
67132;SDS011;54052;53.542;49.408;2022-07-05T13:53:25;2.92;;;1.10;;
67132;SDS011;54052;53.542;49.408;2022-07-05T13:55:52;1.67;;;1.05;;
67132;SDS011;54052;53.542;49.408;2022-07-05T13:58:18;1.40;;;0.70;;
67132;SDS011;54052;53.542;49.408;2022-07-05T14:00:45;6.72;;;0.50;;
67132;SDS011;54052;53.542;49.408;2022-07-05T14:03:11;1.95;;;1.15;;
67132;SDS011;54052;53.542;49.408;2022-07-05T14:05:38;3.47;;;1.00;;
67132;SDS011;54052;53.542;49.408;2022-07-05T14:08:05;0.95;;;0.60;;
67132;SDS011;54052;53.542;49.408;2022-07-05T14:10:37;0.97;;;0.77;;
67132;SDS011;54052;53.542;49.408;2022-07-05T14:13:03;0.60;;;0.40;;
67132;SDS011;54052;53.542;49.408;2022-07-05T14:15:30;5.55;;;1.02;;
67132;SDS011;54052;53.542;49.408;2022-07-05T14:17:56;0.80;;;0.68;;
67132;SDS011;54052;53.542;49.408;2022-07-05T14:20:25;0.60;;;0.60;;
67132;SDS011;54052;53.542;49.408;2022-07-05T14:22:51;2.42;;;0.60;;
67132;SDS011;54052;53.542;49.408;2022-07-05T14:25:18;1.10;;;0.57;;
67132;SDS011;54052;53.542;49.408;2022-07-05T14:27:44;1.15;;;0.50;;
67132;SDS011;54052;53.542;49.408;2022-07-05T14:30:11;1.05;;;0.60;;
67132;SDS011;54052;53.542;49.408;2022-07-05T14:32:38;3.10;;;0.40;;
67132;SDS011;54052;53.542;49.408;2022-07-05T14:35:04;1.00;;;0.40;;
67132;SDS011;54052;53.542;49.408;2022-07-05T14:37:31;5.45;;;0.40;;
67132;SDS011;54052;53.542;49.408;2022-07-05T14:39:57;0.50;;;0.45;;
67132;SDS011;54052;53.542;49.408;2022-07-05T14:42:24;1.13;;;0.50;;
67132;SDS011;54052;53.542;49.408;2022-07-05T14:44:50;1.67;;;0.50;;
67132;SDS011;54052;53.542;49.408;2022-07-05T14:47:16;1.48;;;0.50;;
67132;SDS011;54052;53.542;49.408;2022-07-05T14:49:43;6.43;;;0.50;;
67132;SDS011;54052;53.542;49.408;2022-07-05T14:52:09;0.55;;;0.40;;
67132;SDS011;54052;53.542;49.408;2022-07-05T14:54:36;4.50;;;0.52;;
67132;SDS011;54052;53.542;49.408;2022-07-05T14:57:02;1.42;;;0.38;;
67132;SDS011;54052;53.542;49.408;2022-07-05T14:59:29;0.60;;;0.50;;
67132;SDS011;54052;53.542;49.408;2022-07-05T15:01:55;1.08;;;0.55;;
67132;SDS011;54052;53.542;49.408;2022-07-05T15:04:22;0.30;;;0.30;;
67132;SDS011;54052;53.542;49.408;2022-07-05T15:06:48;1.55;;;0.55;;
67132;SDS011;54052;53.542;49.408;2022-07-05T15:09:15;5.88;;;0.50;;
67132;SDS011;54052;53.542;49.408;2022-07-05T15:11:41;0.50;;;0.40;;
67132;SDS011;54052;53.542;49.408;2022-07-05T15:14:08;1.02;;;0.32;;
67132;SDS011;54052;53.542;49.408;2022-07-05T15:16:34;0.70;;;0.32;;
67132;SDS011;54052;53.542;49.408;2022-07-05T15:19:02;1.73;;;0.55;;